Time;durP1;ratioP1;P1;durP2;ratioP2;P2;SDS_P1;SDS_P2;PMS_P1;PMS_P2;Temp;Humidity;BMP_temperature;BMP_pressure;BME280_temperature;BME280_humidity;BME280_pressure;Samples;Min_cycle;Max_cycle;Signal;HPM_P1;HPM_P2
2021/12/28 00:00:47;;;;;;;3.17;2.38;;;6.90;99.90;;;;;;5061669;28;20625;-72
2021/12/28 00:03:14;;;;;;;2.83;2.60;;;6.90;99.90;;;;;;5052051;28;20316;-72
2021/12/28 00:05:41;;;;;;;3.00;2.70;;;6.90;99.90;;;;;;5060123;28;20651;-72
2021/12/28 00:08:07;;;;;;;3.03;2.75;;;6.90;99.90;;;;;;5063411;28;20307;-71
2021/12/28 00:10:34;;;;;;;4.28;2.63;;;6.90;99.90;;;;;;5058275;28;20218;-72
2021/12/28 00:13:02;;;;;;;2.50;2.00;;;6.90;99.90;;;;;;5055761;28;20194;-72
2021/12/28 00:15:36;;;;;;;2.53;2.33;;;6.80;99.90;;;;;;5056887;28;20630;-72
2021/12/28 00:18:04;;;;;;;2.97;2.72;;;6.80;99.90;;;;;;5058468;28;20197;-72
2021/12/28 00:20:33;;;;;;;3.17;2.75;;;6.80;99.90;;;;;;5055897;28;20778;-72
2021/12/28 00:23:01;;;;;;;1.98;1.77;;;6.80;99.90;;;;;;5064651;28;20664;-72
2021/12/28 00:25:28;;;;;;;2.60;2.40;;;6.80;99.90;;;;;;5060637;28;20255;-73
2021/12/28 00:27:55;;;;;;;1.98;1.80;;;6.80;99.90;;;;;;5063007;28;20263;-72
2021/12/28 00:30:24;;;;;;;2.22;1.75;;;6.80;99.90;;;;;;5061097;28;20710;-72
2021/12/28 00:32:53;;;;;;;2.15;1.95;;;6.80;99.90;;;;;;5060993;28;20197;-73
2021/12/28 00:35:21;;;;;;;1.95;1.73;;;6.80;99.90;;;;;;5060253;28;20208;-73
2021/12/28 00:37:48;;;;;;;2.50;2.30;;;6.80;99.90;;;;;;5054563;28;20202;-72
2021/12/28 00:40:15;;;;;;;2.67;2.45;;;6.80;99.90;;;;;;5063003;28;20221;-74
2021/12/28 00:42:41;;;;;;;3.13;1.77;;;6.90;99.90;;;;;;5066723;28;20629;-72
2021/12/28 00:45:09;;;;;;;3.10;2.00;;;6.90;99.90;;;;;;5062753;28;20198;-73
2021/12/28 00:47:37;;;;;;;3.15;2.85;;;6.90;99.90;;;;;;5060723;28;20245;-72
2021/12/28 00:50:04;;;;;;;2.33;2.13;;;6.90;99.90;;;;;;5063221;28;20788;-71
2021/12/28 00:52:31;;;;;;;2.70;2.50;;;6.80;99.90;;;;;;5061347;28;20334;-72
2021/12/28 00:54:58;;;;;;;2.40;2.30;;;6.80;99.90;;;;;;5063453;28;20206;-71
2021/12/28 00:57:24;;;;;;;3.10;2.78;;;6.80;99.90;;;;;;5064348;28;20202;-71
2021/12/28 00:59:51;;;;;;;6.78;3.25;;;6.80;99.90;;;;;;5061660;28;20302;-71
2021/12/28 01:02:18;;;;;;;5.03;2.55;;;6.80;99.90;;;;;;5067006;28;20233;-72
2021/12/28 01:04:45;;;;;;;2.20;1.70;;;6.90;99.90;;;;;;5052067;28;20202;-71
2021/12/28 01:07:12;;;;;;;1.88;1.70;;;6.90;99.90;;;;;;5066231;28;20256;-71
2021/12/28 01:09:41;;;;;;;2.63;2.42;;;6.90;99.90;;;;;;5065087;28;20283;-72
2021/12/28 01:12:09;;;;;;;2.55;2.35;;;6.90;99.90;;;;;;5067727;28;20201;-71
2021/12/28 01:14:37;;;;;;;2.55;1.70;;;6.90;99.90;;;;;;5063848;28;20206;-71
2021/12/28 01:17:04;;;;;;;1.83;1.73;;;7.00;99.90;;;;;;5053365;28;20799;-71
2021/12/28 01:19:31;;;;;;;1.95;1.75;;;7.00;99.90;;;;;;5061329;28;20237;-72
2021/12/28 01:22:01;;;;;;;1.90;1.70;;;7.00;99.90;;;;;;5039226;22;20299;-75
2021/12/28 01:24:29;;;;;;;3.17;1.17;;;7.00;99.90;;;;;;5000788;28;20199;-75
2021/12/28 01:26:56;;;;;;;9.18;2.10;;;7.10;99.90;;;;;;5004955;28;20207;-75
2021/12/28 01:29:23;;;;;;;4.85;1.52;;;7.10;99.90;;;;;;5013600;28;20231;-75
2021/12/28 01:31:49;;;;;;;2.08;1.83;;;7.20;99.90;;;;;;5016867;28;20281;-75
2021/12/28 01:34:16;;;;;;;2.20;1.60;;;7.30;99.90;;;;;;5000584;28;20207;-75
2021/12/28 01:36:43;;;;;;;1.90;1.65;;;7.30;99.90;;;;;;5003125;28;20195;-74
2021/12/28 01:39:12;;;;;;;1.38;1.27;;;7.30;99.90;;;;;;5010985;28;20649;-75
2021/12/28 01:41:39;;;;;;;4.60;1.48;;;7.30;99.90;;;;;;5011236;28;20732;-75
2021/12/28 01:44:08;;;;;;;1.45;1.20;;;7.30;99.90;;;;;;5021775;28;20276;-74
2021/12/28 01:46:36;;;;;;;3.25;1.83;;;7.30;99.90;;;;;;5002325;28;20250;-75
2021/12/28 01:49:04;;;;;;;2.40;1.40;;;7.30;99.90;;;;;;5010054;28;20657;-75
2021/12/28 01:51:32;;;;;;;4.70;1.40;;;7.30;99.90;;;;;;5009414;28;20242;-74
2021/12/28 01:54:00;;;;;;;1.73;1.52;;;7.30;99.90;;;;;;5003314;28;20813;-75
2021/12/28 01:56:32;;;;;;;2.50;2.30;;;7.20;99.90;;;;;;5013545;28;20211;-76
2021/12/28 01:58:59;;;;;;;1.88;1.35;;;7.20;99.90;;;;;;5010352;28;20297;-74
2021/12/28 02:01:27;;;;;;;1.77;1.67;;;7.20;99.90;;;;;;5024843;28;20222;-74
2021/12/28 02:03:54;;;;;;;3.63;1.50;;;7.20;99.90;;;;;;5018936;28;20719;-74
2021/12/28 02:06:22;;;;;;;6.65;2.13;;;7.20;99.90;;;;;;5013336;28;20210;-75
2021/12/28 02:08:48;;;;;;;1.48;1.13;;;7.20;99.90;;;;;;5011387;28;20642;-75
2021/12/28 02:11:15;;;;;;;2.25;1.50;;;7.20;99.90;;;;;;5019322;28;20246;-74
2021/12/28 02:13:43;;;;;;;2.08;1.23;;;7.20;99.90;;;;;;5015597;28;20653;-75
2021/12/28 02:16:10;;;;;;;2.58;1.20;;;7.30;99.90;;;;;;5024819;28;20199;-74
2021/12/28 02:18:38;;;;;;;10.63;2.17;;;7.30;99.90;;;;;;5012293;28;20207;-75
2021/12/28 02:21:08;;;;;;;5.38;1.40;;;7.30;99.90;;;;;;5021397;28;20230;-75
2021/12/28 02:23:36;;;;;;;3.08;2.10;;;7.40;99.90;;;;;;5024790;28;20215;-75
2021/12/28 02:26:04;;;;;;;1.65;1.55;;;7.40;99.90;;;;;;5019150;28;20230;-74
2021/12/28 02:28:30;;;;;;;0.90;0.70;;;7.40;99.90;;;;;;5002581;28;20211;-74
2021/12/28 02:30:58;;;;;;;3.08;1.98;;;7.40;99.90;;;;;;5003460;28;20298;-75
2021/12/28 02:33:27;;;;;;;3.85;2.88;;;7.40;99.90;;;;;;5017012;28;20277;-74
2021/12/28 02:35:55;;;;;;;4.10;2.72;;;7.40;99.90;;;;;;5007631;28;20261;-74
2021/12/28 02:38:23;;;;;;;1.85;1.75;;;7.40;99.90;;;;;;5007704;28;20233;-74
2021/12/28 02:40:50;;;;;;;2.15;1.92;;;7.50;99.90;;;;;;5008664;28;20296;-74
2021/12/28 02:43:19;;;;;;;5.07;1.60;;;7.50;99.90;;;;;;5008722;28;20242;-74
2021/12/28 02:45:51;;;;;;;7.47;1.95;;;7.50;99.90;;;;;;5002948;28;20218;-75
2021/12/28 02:48:19;;;;;;;3.85;1.85;;;7.50;99.90;;;;;;5010218;28;20216;-75
2021/12/28 02:50:48;;;;;;;2.30;1.73;;;7.50;99.90;;;;;;5028008;28;20231;-75
2021/12/28 02:53:17;;;;;;;4.07;1.70;;;7.60;99.90;;;;;;5019222;28;20625;-75
2021/12/28 02:55:45;;;;;;;1.85;1.75;;;7.60;99.90;;;;;;5003761;28;20266;-75
2021/12/28 02:58:23;;;;;;;3.87;1.17;;;7.70;99.90;;;;;;5002622;28;20672;-75
2021/12/28 03:00:53;;;;;;;3.03;1.83;;;7.70;99.90;;;;;;5006075;28;20481;-74
2021/12/28 03:03:21;;;;;;;3.08;1.38;;;7.80;99.90;;;;;;5010880;28;20220;-75
2021/12/28 03:05:51;;;;;;;4.82;2.80;;;7.80;99.90;;;;;;5006927;28;20288;-76
2021/12/28 03:08:19;;;;;;;3.90;2.05;;;7.90;99.90;;;;;;5006471;28;20234;-76
2021/12/28 03:10:49;;;;;;;1.65;1.15;;;7.90;99.90;;;;;;5017254;28;20222;-76
2021/12/28 03:13:19;;;;;;;4.00;1.97;;;7.90;99.90;;;;;;5013204;28;20279;-76
2021/12/28 03:15:46;;;;;;;1.87;1.77;;;7.90;99.90;;;;;;5007302;28;20833;-77
2021/12/28 03:18:13;;;;;;;6.68;2.42;;;8.00;99.90;;;;;;5009742;28;20516;-76
2021/12/28 03:20:39;;;;;;;1.73;1.58;;;8.00;99.90;;;;;;5023062;28;20300;-76
2021/12/28 03:23:06;;;;;;;4.53;1.95;;;8.00;99.90;;;;;;5020746;28;20285;-76
2021/12/28 03:25:33;;;;;;;2.20;1.30;;;8.00;99.90;;;;;;5013302;28;20234;-76
2021/12/28 03:28:02;;;;;;;2.53;1.40;;;8.00;99.90;;;;;;5015096;28;20207;-76
2021/12/28 03:30:29;;;;;;;5.83;1.80;;;8.00;99.90;;;;;;5026149;28;20226;-76
2021/12/28 03:32:56;;;;;;;4.68;1.48;;;8.00;99.90;;;;;;5008533;28;20887;-76
2021/12/28 03:35:22;;;;;;;1.65;0.98;;;8.00;99.90;;;;;;5009537;28;20637;-76
2021/12/28 03:37:49;;;;;;;2.03;0.80;;;8.10;99.90;;;;;;5011171;28;20210;-76
2021/12/28 03:40:16;;;;;;;10.85;3.00;;;8.10;99.90;;;;;;5007165;28;20462;-76
2021/12/28 03:42:43;;;;;;;1.03;0.80;;;8.10;99.90;;;;;;5008687;28;20573;-76
2021/12/28 03:45:13;;;;;;;11.93;2.20;;;8.10;99.90;;;;;;5002656;28;20521;-76
2021/12/28 03:47:39;;;;;;;2.65;1.50;;;8.10;99.90;;;;;;5017304;28;20462;-76
2021/12/28 03:50:08;;;;;;;5.20;1.20;;;8.10;99.90;;;;;;5000057;28;20580;-76
2021/12/28 03:52:35;;;;;;;13.57;1.52;;;8.10;99.90;;;;;;5026923;28;20469;-76
2021/12/28 03:55:02;;;;;;;6.47;2.33;;;8.10;99.90;;;;;;5008775;28;20961;-76
2021/12/28 03:57:28;;;;;;;2.65;1.20;;;8.10;99.90;;;;;;5023765;28;20586;-76
2021/12/28 03:59:55;;;;;;;5.47;2.80;;;8.10;99.90;;;;;;5010435;28;20203;-75
2021/12/28 04:02:23;;;;;;;5.68;1.30;;;8.10;99.90;;;;;;5006190;28;20327;-75
2021/12/28 04:04:50;;;;;;;1.70;1.25;;;8.10;99.90;;;;;;5003641;28;20215;-76
2021/12/28 04:07:20;;;;;;;4.27;1.17;;;8.10;99.90;;;;;;5013835;28;20356;-76
2021/12/28 04:09:59;;;;;;;3.22;1.25;;;8.10;99.90;;;;;;4998957;28;20451;-76
2021/12/28 04:12:26;;;;;;;3.43;1.23;;;8.10;99.90;;;;;;5010237;28;20809;-76
2021/12/28 04:14:53;;;;;;;1.35;1.25;;;8.10;99.90;;;;;;5008538;28;20833;-76
2021/12/28 04:17:20;;;;;;;3.28;2.13;;;8.20;99.90;;;;;;4999468;28;20665;-76
2021/12/28 04:19:48;;;;;;;7.38;1.38;;;8.20;99.90;;;;;;5005737;28;20274;-76
2021/12/28 04:22:16;;;;;;;6.33;1.47;;;8.20;99.90;;;;;;5009608;28;20644;-76
2021/12/28 04:24:43;;;;;;;2.22;1.20;;;8.20;99.90;;;;;;5024667;28;20488;-76
2021/12/28 04:27:09;;;;;;;1.77;1.17;;;8.20;99.90;;;;;;5016699;28;20541;-76
2021/12/28 04:29:36;;;;;;;2.67;1.02;;;8.20;99.90;;;;;;5025924;28;20211;-76
2021/12/28 04:32:04;;;;;;;6.13;1.95;;;8.20;99.90;;;;;;5002779;28;20330;-76
2021/12/28 04:34:30;;;;;;;1.15;0.80;;;8.30;99.90;;;;;;5017693;28;20203;-76
2021/12/28 04:36:58;;;;;;;2.20;0.90;;;8.30;99.90;;;;;;5013179;28;20229;-76
2021/12/28 04:39:25;;;;;;;3.17;0.77;;;8.30;99.90;;;;;;4998664;28;20703;-76
2021/12/28 04:41:54;;;;;;;0.85;0.68;;;8.30;99.90;;;;;;5002938;28;20486;-76
2021/12/28 04:44:24;;;;;;;3.73;1.60;;;8.30;99.90;;;;;;5007906;28;20301;-76
2021/12/28 04:46:51;;;;;;;3.00;1.83;;;8.30;99.90;;;;;;5006690;28;20554;-76
2021/12/28 04:49:20;;;;;;;1.73;1.23;;;8.30;99.90;;;;;;5018166;28;20248;-76
2021/12/28 04:51:47;;;;;;;3.93;1.37;;;8.30;99.90;;;;;;5012949;28;20227;-76
2021/12/28 04:54:16;;;;;;;3.37;1.30;;;8.30;99.90;;;;;;5009724;28;20450;-76
2021/12/28 04:56:43;;;;;;;1.67;1.58;;;8.30;99.90;;;;;;5006566;28;20465;-76
2021/12/28 04:59:09;;;;;;;7.03;1.63;;;8.30;99.90;;;;;;5009302;28;20277;-76
2021/12/28 05:01:37;;;;;;;3.75;1.35;;;8.30;99.90;;;;;;5002191;28;20493;-75
2021/12/28 05:04:04;;;;;;;6.10;2.77;;;8.30;99.90;;;;;;5009516;28;20555;-76
2021/12/28 05:06:31;;;;;;;2.60;0.90;;;8.30;99.90;;;;;;5005288;28;20830;-76
2021/12/28 05:08:58;;;;;;;1.37;1.27;;;8.30;99.90;;;;;;5013119;28;20453;-76
2021/12/28 05:11:26;;;;;;;3.43;1.57;;;8.30;99.90;;;;;;5001051;28;20547;-76
2021/12/28 05:13:52;;;;;;;5.30;1.58;;;8.30;99.90;;;;;;5014986;28;20457;-76
2021/12/28 05:16:19;;;;;;;1.70;1.33;;;8.30;99.90;;;;;;5002282;28;20704;-76
2021/12/28 05:18:46;;;;;;;4.93;1.98;;;8.30;99.90;;;;;;4994316;28;20466;-76
2021/12/28 05:21:12;;;;;;;4.93;1.98;;;8.30;99.90;;;;;;5008058;28;20254;-76
2021/12/28 05:23:39;;;;;;;3.33;1.92;;;8.30;99.90;;;;;;5019227;28;20282;-76
2021/12/28 05:26:06;;;;;;;7.32;1.95;;;8.30;99.90;;;;;;5011905;28;20357;-76
2021/12/28 05:28:34;;;;;;;4.53;2.00;;;8.20;99.90;;;;;;5001736;28;20280;-76
2021/12/28 05:31:00;;;;;;;2.10;1.87;;;8.30;99.90;;;;;;5023023;28;20485;-76
2021/12/28 05:33:27;;;;;;;3.08;1.95;;;8.30;99.90;;;;;;5021575;28;20450;-76
2021/12/28 05:35:54;;;;;;;4.43;2.05;;;8.30;99.90;;;;;;5008074;28;20516;-76
2021/12/28 05:38:21;;;;;;;11.00;2.00;;;8.20;99.90;;;;;;5007559;28;20207;-76
2021/12/28 05:40:47;;;;;;;3.63;2.37;;;8.30;99.90;;;;;;5019816;28;20925;-75
2021/12/28 05:43:14;;;;;;;15.05;3.20;;;8.30;99.90;;;;;;5008127;28;20458;-75
2021/12/28 05:45:43;;;;;;;9.77;2.97;;;8.30;99.90;;;;;;5015508;28;20327;-76
2021/12/28 05:48:10;;;;;;;2.67;1.97;;;8.30;99.90;;;;;;5007994;28;20534;-75
2021/12/28 05:50:36;;;;;;;1.37;1.27;;;8.30;99.90;;;;;;5005196;28;20541;-75
2021/12/28 05:53:04;;;;;;;5.40;2.22;;;8.30;99.90;;;;;;5009576;28;20523;-76
2021/12/28 05:55:30;;;;;;;4.10;2.03;;;8.30;99.90;;;;;;5015199;28;20203;-76
2021/12/28 05:57:57;;;;;;;2.22;2.03;;;8.30;99.90;;;;;;5011582;28;20491;-76
2021/12/28 06:00:25;;;;;;;3.90;2.07;;;8.30;99.90;;;;;;5008713;28;20377;-76
2021/12/28 06:02:53;;;;;;;7.13;1.80;;;8.30;99.90;;;;;;4997995;28;20452;-76
2021/12/28 06:05:19;;;;;;;2.53;1.90;;;8.30;99.90;;;;;;5011147;28;20272;-75
2021/12/28 06:07:46;;;;;;;1.70;1.43;;;8.30;99.90;;;;;;5012479;28;20974;-75
2021/12/28 06:10:14;;;;;;;7.07;3.42;;;8.30;99.90;;;;;;5003358;28;20459;-75
2021/12/28 06:12:41;;;;;;;2.13;1.70;;;8.40;99.90;;;;;;5002270;28;20289;-75
2021/12/28 06:15:08;;;;;;;1.30;1.20;;;8.40;99.90;;;;;;5015224;28;20824;-75
2021/12/28 06:17:35;;;;;;;6.47;2.37;;;8.40;99.90;;;;;;5009411;28;20544;-75
2021/12/28 06:20:04;;;;;;;4.30;1.50;;;8.40;99.90;;;;;;5008799;28;20454;-75
2021/12/28 06:22:31;;;;;;;5.90;2.50;;;8.40;99.90;;;;;;5013926;28;20672;-75
2021/12/28 06:24:58;;;;;;;4.27;1.93;;;8.40;99.90;;;;;;5005788;28;20565;-75
2021/12/28 06:27:25;;;;;;;3.33;1.93;;;8.40;99.90;;;;;;5014308;28;20505;-75
2021/12/28 06:29:51;;;;;;;4.63;2.00;;;8.40;99.90;;;;;;5014294;28;20450;-75
2021/12/28 06:32:18;;;;;;;7.00;2.07;;;8.40;99.90;;;;;;5014941;28;20974;-75
2021/12/28 06:34:45;;;;;;;8.13;2.23;;;8.40;99.90;;;;;;5026483;28;20919;-75
2021/12/28 06:37:13;;;;;;;8.43;2.80;;;8.40;99.90;;;;;;5003286;28;20532;-72
2021/12/28 06:39:39;;;;;;;5.60;2.77;;;8.40;99.90;;;;;;5001685;28;20983;-73
2021/12/28 06:42:07;;;;;;;4.00;2.40;;;8.40;99.90;;;;;;5002345;28;20540;-72
2021/12/28 06:44:33;;;;;;;3.37;1.97;;;8.40;99.90;;;;;;5010518;28;20552;-72
2021/12/28 06:47:00;;;;;;;2.10;1.90;;;8.40;99.90;;;;;;5000896;28;20465;-72
2021/12/28 06:49:27;;;;;;;2.70;1.67;;;8.40;99.90;;;;;;4997703;28;20446;-72
2021/12/28 06:51:53;;;;;;;13.00;3.70;;;8.40;99.90;;;;;;4999871;28;20527;-72
2021/12/28 06:54:21;;;;;;;2.40;2.30;;;8.40;99.90;;;;;;5002566;28;20504;-73
2021/12/28 06:56:48;;;;;;;6.10;1.57;;;8.30;99.90;;;;;;5002942;28;20462;-73
2021/12/28 06:59:15;;;;;;;12.03;1.80;;;8.30;99.90;;;;;;5002236;28;20458;-73
2021/12/28 07:01:41;;;;;;;3.27;2.57;;;8.30;99.90;;;;;;5002483;28;20928;-73
2021/12/28 07:04:08;;;;;;;1.13;1.00;;;8.30;99.90;;;;;;5002622;28;20485;-72
2021/12/28 07:06:35;;;;;;;2.33;2.13;;;8.30;99.90;;;;;;5002894;28;20990;-72
2021/12/28 07:09:02;;;;;;;3.30;2.40;;;8.30;99.90;;;;;;4996352;28;20462;-73
2021/12/28 07:11:30;;;;;;;2.93;1.90;;;8.40;99.90;;;;;;5001752;28;20486;-73
2021/12/28 07:13:56;;;;;;;3.07;1.77;;;8.30;99.90;;;;;;5000364;28;20962;-73
2021/12/28 07:16:23;;;;;;;2.60;1.47;;;8.30;99.90;;;;;;5006586;28;20543;-74
2021/12/28 07:18:50;;;;;;;1.23;1.17;;;8.30;99.90;;;;;;5003029;28;20463;-73
2021/12/28 07:21:16;;;;;;;1.80;1.37;;;8.30;99.90;;;;;;5002912;28;20478;-73
2021/12/28 07:23:43;;;;;;;5.60;1.83;;;8.30;99.90;;;;;;5006705;28;20522;-73
2021/12/28 07:26:10;;;;;;;1.47;1.10;;;8.30;99.90;;;;;;5008396;28;20458;-73
2021/12/28 07:28:38;;;;;;;5.63;1.50;;;8.30;99.90;;;;;;5025901;28;20444;-73
2021/12/28 07:31:04;;;;;;;3.65;1.85;;;8.30;99.90;;;;;;5023885;28;20481;-74
2021/12/28 07:33:31;;;;;;;3.20;1.57;;;8.20;99.90;;;;;;5011176;28;20211;-73
2021/12/28 07:35:57;;;;;;;4.53;1.17;;;8.20;99.90;;;;;;5004324;28;20866;-73
2021/12/28 07:38:24;;;;;;;3.77;2.27;;;8.20;99.90;;;;;;5021688;28;20561;-73
2021/12/28 07:40:51;;;;;;;2.03;1.65;;;8.10;99.90;;;;;;5044803;23;20508;-73
2021/12/28 07:43:19;;;;;;;2.38;2.17;;;8.00;99.90;;;;;;5045278;28;20198;-70
2021/12/28 07:45:47;;;;;;;7.07;2.42;;;8.00;99.90;;;;;;5043787;28;20287;-71
2021/12/28 07:48:14;;;;;;;2.17;1.45;;;8.00;99.90;;;;;;5043837;28;20720;-70
2021/12/28 07:50:40;;;;;;;2.80;1.92;;;8.00;99.90;;;;;;5028276;28;20226;-71
2021/12/28 07:53:07;;;;;;;4.90;1.20;;;8.00;99.90;;;;;;5020936;28;20215;-71
2021/12/28 07:55:34;;;;;;;1.45;1.00;;;8.00;99.90;;;;;;5020736;28;20228;-72
2021/12/28 07:58:00;;;;;;;1.85;1.75;;;8.00;99.90;;;;;;5021957;28;20206;-71
2021/12/28 08:00:28;;;;;;;4.43;1.60;;;7.90;99.90;;;;;;5021009;28;20859;-70
2021/12/28 08:02:56;;;;;;;2.15;1.83;;;7.90;99.90;;;;;;5020688;28;20205;-71
2021/12/28 08:05:23;;;;;;;6.47;1.70;;;7.90;99.90;;;;;;5021616;28;20227;-70
2021/12/28 08:07:50;;;;;;;3.10;1.48;;;8.00;99.90;;;;;;5022252;28;20198;-71
2021/12/28 08:10:18;;;;;;;2.60;1.30;;;8.00;99.90;;;;;;5027031;28;20352;-70
2021/12/28 08:12:47;;;;;;;11.87;2.93;;;8.10;99.90;;;;;;5028523;28;20203;-71
2021/12/28 08:15:13;;;;;;;2.33;1.70;;;8.20;99.90;;;;;;5028746;28;21053;-70
2021/12/28 08:17:40;;;;;;;2.35;1.80;;;8.20;99.90;;;;;;5024847;28;20493;-70
2021/12/28 08:20:11;;;;;;;3.93;1.40;;;8.20;99.90;;;;;;5028233;28;20226;-71
2021/12/28 08:22:39;;;;;;;1.50;1.30;;;8.30;99.90;;;;;;5028491;28;20607;-71
2021/12/28 08:25:08;;;;;;;4.82;1.35;;;8.30;99.90;;;;;;5028506;28;20485;-70
2021/12/28 08:27:35;;;;;;;5.07;1.85;;;8.30;99.90;;;;;;5028964;28;20531;-70
2021/12/28 08:30:02;;;;;;;4.07;2.03;;;8.30;99.90;;;;;;5029038;28;20735;-71
2021/12/28 08:32:28;;;;;;;1.00;1.00;;;8.30;99.90;;;;;;5029044;28;20461;-71
2021/12/28 08:34:55;;;;;;;2.30;1.63;;;8.20;99.90;;;;;;5024211;28;20469;-70
2021/12/28 08:37:23;;;;;;;2.73;0.70;;;8.30;99.90;;;;;;5028656;28;20938;-71
2021/12/28 08:39:50;;;;;;;1.43;0.97;;;8.20;99.90;;;;;;5023289;28;20477;-77
2021/12/28 08:42:17;;;;;;;2.30;1.13;;;8.20;99.90;;;;;;5033890;28;20520;-77
2021/12/28 08:44:44;;;;;;;1.90;1.60;;;8.20;99.90;;;;;;5031195;28;20821;-73
2021/12/28 08:47:11;;;;;;;3.25;1.77;;;8.10;99.90;;;;;;5031921;28;20461;-73
2021/12/28 08:49:37;;;;;;;3.07;1.30;;;8.10;99.90;;;;;;5026861;28;20292;-73
2021/12/28 08:52:04;;;;;;;2.10;1.07;;;8.10;99.90;;;;;;5031150;28;20452;-73
2021/12/28 08:54:32;;;;;;;3.33;1.15;;;8.20;99.90;;;;;;5019958;28;20509;-73
2021/12/28 08:56:59;;;;;;;1.60;1.50;;;8.20;99.90;;;;;;5029858;28;20207;-71
2021/12/28 08:59:27;;;;;;;2.43;1.63;;;8.30;99.90;;;;;;5029572;28;20473;-71
2021/12/28 09:01:55;;;;;;;1.80;1.70;;;8.30;99.90;;;;;;5026270;28;20473;-75
2021/12/28 09:04:22;;;;;;;3.80;1.37;;;8.40;99.90;;;;;;5025374;28;20485;-74
2021/12/28 09:06:49;;;;;;;1.37;1.27;;;8.40;99.90;;;;;;5028061;28;20466;-71
2021/12/28 09:09:16;;;;;;;3.50;1.33;;;8.40;99.90;;;;;;5023838;28;20532;-72
2021/12/28 09:11:44;;;;;;;3.13;1.20;;;8.40;99.90;;;;;;5023261;28;20532;-71
2021/12/28 09:14:11;;;;;;;9.13;1.87;;;8.50;99.90;;;;;;5027543;28;20457;-71
2021/12/28 09:16:38;;;;;;;1.50;0.70;;;8.50;99.90;;;;;;5028305;28;20544;-71
2021/12/28 09:19:05;;;;;;;1.13;0.93;;;8.60;99.90;;;;;;5028841;28;20944;-72
2021/12/28 09:21:32;;;;;;;4.63;1.03;;;8.60;99.90;;;;;;5028905;28;20457;-72
2021/12/28 09:23:58;;;;;;;1.50;1.00;;;8.60;99.90;;;;;;5027964;28;20465;-72
2021/12/28 09:26:25;;;;;;;1.97;1.20;;;8.70;99.90;;;;;;5023896;28;20863;-72
2021/12/28 09:28:53;;;;;;;0.70;0.70;;;8.70;99.90;;;;;;5019947;28;20520;-72
2021/12/28 09:31:20;;;;;;;1.57;0.90;;;8.70;99.90;;;;;;5020597;28;20461;-72
2021/12/28 09:33:47;;;;;;;2.67;1.67;;;8.70;99.90;;;;;;5024258;28;20457;-71
2021/12/28 09:36:15;;;;;;;1.03;1.00;;;8.70;99.90;;;;;;5022842;28;20511;-71
2021/12/28 09:38:42;;;;;;;0.70;0.70;;;8.80;99.90;;;;;;5024872;28;20539;-72
2021/12/28 09:41:09;;;;;;;2.83;1.70;;;8.80;99.90;;;;;;5025404;28;21084;-65
2021/12/28 09:43:36;;;;;;;2.30;2.20;;;8.80;99.90;;;;;;5025671;28;20844;-65
2021/12/28 09:46:04;;;;;;;1.63;1.27;;;8.90;99.90;;;;;;5026481;28;20518;-69
2021/12/28 09:48:32;;;;;;;0.80;0.70;;;8.90;99.90;;;;;;5027729;28;20465;-70
2021/12/28 09:50:59;;;;;;;0.90;0.90;;;9.00;99.90;;;;;;5029675;28;20481;-70
2021/12/28 09:53:25;;;;;;;8.90;1.23;;;9.00;99.90;;;;;;5027094;28;20846;-70
2021/12/28 09:55:52;;;;;;;1.00;0.80;;;9.00;99.90;;;;;;5025120;28;20517;-70
2021/12/28 09:58:19;;;;;;;3.80;1.70;;;9.00;99.90;;;;;;5019899;28;20816;-70
2021/12/28 10:00:45;;;;;;;0.97;0.93;;;9.00;99.90;;;;;;5027481;28;20489;-70
2021/12/28 10:03:14;;;;;;;1.63;1.53;;;9.00;99.90;;;;;;5026530;28;20496;-71
2021/12/28 10:05:41;;;;;;;1.30;1.20;;;9.10;99.90;;;;;;5021593;28;20480;-72
2021/12/28 10:08:08;;;;;;;1.50;1.40;;;9.10;99.90;;;;;;5018402;28;20515;-71
2021/12/28 10:10:38;;;;;;;0.80;0.70;;;9.10;99.90;;;;;;5028085;28;20481;-73
2021/12/28 10:13:07;;;;;;;1.50;1.40;;;9.10;99.90;;;;;;5031015;28;20458;-73
2021/12/28 10:15:38;;;;;;;0.87;0.87;;;9.10;99.90;;;;;;5019556;28;20992;-72
2021/12/28 10:18:08;;;;;;;1.07;1.07;;;9.10;99.90;;;;;;5038481;28;20487;-72
2021/12/28 10:20:39;;;;;;;1.30;1.20;;;9.10;99.90;;;;;;5022439;28;20488;-71
2021/12/28 10:23:10;;;;;;;0.50;0.40;;;9.00;99.90;;;;;;5028336;28;20465;-72
2021/12/28 10:25:39;;;;;;;4.80;4.60;;;9.00;99.90;;;;;;5028117;28;21013;-73
2021/12/28 10:28:08;;;;;;;5.87;3.50;;;9.10;99.90;;;;;;5030076;28;20473;-73
2021/12/28 10:30:40;;;;;;;1.00;0.93;;;9.10;99.90;;;;;;5032591;28;20485;-72
2021/12/28 10:33:08;;;;;;;0.70;0.70;;;9.00;99.90;;;;;;5035072;28;20461;-72
2021/12/28 10:35:40;;;;;;;2.03;1.10;;;9.10;99.90;;;;;;5032836;28;20944;-73
2021/12/28 10:38:10;;;;;;;0.90;0.80;;;9.10;99.90;;;;;;5030435;28;20461;-72
2021/12/28 10:40:39;;;;;;;0.77;0.77;;;9.20;99.90;;;;;;5031925;28;20480;-73
2021/12/28 10:43:08;;;;;;;3.00;1.30;;;9.20;99.90;;;;;;5032487;28;20469;-72
2021/12/28 10:45:39;;;;;;;3.37;0.77;;;9.20;99.90;;;;;;5032024;28;20635;-72
2021/12/28 10:48:09;;;;;;;1.00;0.80;;;9.30;99.90;;;;;;5032731;28;20457;-72
2021/12/28 10:50:40;;;;;;;1.07;0.97;;;9.30;99.90;;;;;;5033709;28;20473;-72
2021/12/28 10:53:17;;;;;;;2.20;1.60;;;9.40;99.90;;;;;;5030807;28;20951;-73
2021/12/28 10:55:45;;;;;;;0.77;0.77;;;9.50;99.90;;;;;;5032609;28;20464;-73
2021/12/28 10:58:25;;;;;;;1.60;1.37;;;9.40;99.90;;;;;;5032161;28;20469;-72
2021/12/28 11:00:52;;;;;;;0.40;0.40;;;9.50;99.90;;;;;;5032150;28;20495;-72
2021/12/28 11:03:30;;;;;;;1.23;0.73;;;9.50;99.90;;;;;;5031129;28;20810;-72
2021/12/28 11:06:00;;;;;;;2.93;0.90;;;9.60;99.90;;;;;;5031871;28;20483;-72
2021/12/28 11:08:28;;;;;;;0.97;0.70;;;9.70;99.90;;;;;;5028743;28;21009;-72
2021/12/28 11:10:58;;;;;;;1.43;0.90;;;9.80;99.90;;;;;;5031456;28;20531;-72
2021/12/28 11:13:26;;;;;;;1.43;0.70;;;9.80;99.90;;;;;;5030485;28;20570;-73
2021/12/28 11:15:53;;;;;;;2.27;0.83;;;10.00;99.90;;;;;;5029515;28;20457;-73
2021/12/28 11:18:29;;;;;;;0.80;0.80;;;10.20;99.90;;;;;;5032504;28;20476;-74
2021/12/28 11:20:56;;;;;;;1.13;1.00;;;10.30;99.90;;;;;;5029262;28;20534;-71
2021/12/28 11:23:27;;;;;;;0.60;0.60;;;10.30;99.90;;;;;;5029868;28;20461;-72
2021/12/28 11:26:07;;;;;;;0.70;0.70;;;10.30;99.90;;;;;;5031508;28;20538;-72
2021/12/28 11:28:34;;;;;;;0.50;0.47;;;10.30;99.90;;;;;;5030627;28;20439;-73
2021/12/28 11:31:05;;;;;;;0.97;0.63;;;10.20;99.90;;;;;;5038161;28;20488;-71
2021/12/28 11:33:55;;;;;;;1.10;0.80;;;10.20;99.90;;;;;;5036889;28;20876;-71
2021/12/28 11:36:24;;;;;;;1.90;1.10;;;10.30;99.90;;;;;;5028160;28;20588;-71
2021/12/28 11:38:54;;;;;;;1.00;1.00;;;10.30;99.90;;;;;;5028558;28;20453;-72
2021/12/28 11:41:21;;;;;;;1.40;1.30;;;10.30;99.90;;;;;;5027729;28;20465;-72
2021/12/28 11:43:48;;;;;;;0.50;0.50;;;10.30;99.90;;;;;;5027171;28;20472;-72
2021/12/28 11:46:16;;;;;;;0.70;0.70;;;10.30;99.90;;;;;;5028884;28;21009;-72
2021/12/28 11:48:44;;;;;;;1.20;1.07;;;10.30;99.90;;;;;;5035574;28;20819;-72
2021/12/28 11:51:12;;;;;;;1.50;1.23;;;10.20;99.90;;;;;;5031488;28;20493;-73
2021/12/28 11:53:44;;;;;;;1.10;0.90;;;10.20;99.90;;;;;;5031157;28;20478;-77
2021/12/28 11:56:14;;;;;;;0.90;0.90;;;10.10;99.90;;;;;;5031747;28;20770;-73
2021/12/28 11:58:58;;;;;;;0.63;0.60;;;10.00;99.90;;;;;;5030734;28;20469;-72
2021/12/28 12:01:53;;;;;;;0.87;0.53;;;10.00;99.90;;;;;;5031591;28;20466;-73
2021/12/28 12:04:43;;;;;;;1.07;0.70;;;9.90;99.90;;;;;;5029623;28;20461;-76
2021/12/28 12:07:13;;;;;;;1.17;1.10;;;9.90;99.90;;;;;;5031880;28;20564;-73
2021/12/28 12:10:05;;;;;;;0.93;0.90;;;9.90;99.90;;;;;;5032486;28;20548;-73
2021/12/28 12:12:44;;;;;;;0.50;0.40;;;10.00;99.90;;;;;;5031101;28;20465;-73
2021/12/28 12:15:12;;;;;;;1.30;0.80;;;10.00;99.90;;;;;;5029926;28;20530;-73
2021/12/28 12:17:41;;;;;;;0.50;0.50;;;10.00;99.90;;;;;;5032659;28;20444;-72
2021/12/28 12:20:22;;;;;;;0.63;0.43;;;10.10;99.90;;;;;;5032162;28;20481;-71
2021/12/28 12:22:51;;;;;;;4.30;0.60;;;10.10;99.90;;;;;;5026764;28;20487;-72
2021/12/28 12:25:20;;;;;;;0.80;0.50;;;10.10;99.90;;;;;;5032211;28;20468;-72
2021/12/28 12:27:51;;;;;;;0.60;0.50;;;10.10;99.90;;;;;;5031321;28;20469;-71
2021/12/28 12:30:47;;;;;;;0.67;0.53;;;10.10;99.90;;;;;;5026437;28;20489;-72
2021/12/28 12:33:15;;;;;;;0.70;0.47;;;10.10;99.90;;;;;;5028836;28;20527;-72
2021/12/28 12:35:49;;;;;;;0.60;0.60;;;10.10;99.90;;;;;;5031620;28;20499;-70
2021/12/28 12:38:36;;;;;;;0.87;0.87;;;10.20;99.90;;;;;;5030049;28;20483;-71
2021/12/28 12:41:10;;;;;;;1.93;0.80;;;10.10;99.90;;;;;;5027023;28;21020;-70
2021/12/28 12:43:47;;;;;;;0.60;0.60;;;10.00;99.90;;;;;;5027407;28;20511;-72
2021/12/28 12:46:37;;;;;;;0.83;0.50;;;9.90;99.90;;;;;;5029745;28;21084;-70
2021/12/28 12:49:21;;;;;;;2.70;1.53;;;9.90;99.90;;;;;;5035028;28;20465;-72
2021/12/28 12:51:51;;;;;;;0.87;0.70;;;9.80;99.90;;;;;;5024575;28;20484;-70
2021/12/28 12:54:24;;;;;;;0.70;0.70;;;9.80;99.90;;;;;;5029323;28;20461;-70
2021/12/28 12:57:10;;;;;;;1.20;0.77;;;9.80;99.90;;;;;;5029431;28;20461;-70
2021/12/28 12:59:48;;;;;;;3.80;1.23;;;9.80;99.90;;;;;;5025433;28;20508;-70
2021/12/28 13:02:29;;;;;;;6.97;2.10;;;9.70;99.90;;;;;;5029329;28;20527;-69